createdAt,value
2023-05-05T00:01:03.684Z,75.40
2023-05-05T00:03:11.832Z,75.51
2023-05-05T00:05:24.324Z,75.30
2023-05-05T00:07:32.303Z,75.82
2023-05-05T00:09:40.151Z,75.59
2023-05-05T00:11:48.138Z,76.37
2023-05-05T00:13:56.450Z,77.32
2023-05-05T00:16:04.350Z,76.87
2023-05-05T00:18:13.013Z,76.47
2023-05-05T00:20:24.421Z,75.60
2023-05-05T00:22:32.367Z,74.97
2023-05-05T00:24:40.290Z,74.21
2023-05-05T00:26:48.340Z,74.48
2023-05-05T00:28:56.217Z,75.08
2023-05-05T00:31:04.579Z,74.96
2023-05-05T00:33:12.567Z,77.04
2023-05-05T00:35:23.416Z,77.30
2023-05-05T00:37:31.565Z,76.84
2023-05-05T00:39:39.817Z,80.76
2023-05-05T00:41:47.966Z,78.40
2023-05-05T00:43:56.203Z,76.56
2023-05-05T00:46:07.074Z,76.06
2023-05-05T00:48:17.189Z,75.38
2023-05-05T00:50:30.546Z,74.07
2023-05-05T00:52:39.154Z,74.73
2023-05-05T00:54:47.226Z,73.63
2023-05-05T00:56:55.385Z,74.23
2023-05-05T00:59:04.053Z,74.74
2023-05-05T01:01:12.281Z,75.15
2023-05-05T01:03:20.335Z,75.74
2023-05-05T01:05:42.729Z,76.41
2023-05-05T01:08:12.998Z,76.61
2023-05-05T01:10:28.979Z,77.68
2023-05-05T01:12:47.921Z,78.49
2023-05-05T01:15:02.288Z,77.70
2023-05-05T01:17:19.132Z,77.26
2023-05-05T01:20:22.024Z,77.00
2023-05-05T01:22:42.436Z,79.08
2023-05-05T01:25:06.766Z,79.94
2023-05-05T01:27:34.455Z,80.03
2023-05-05T01:30:01.273Z,81.02
2023-05-05T01:32:15.904Z,81.48
2023-05-05T01:34:29.280Z,81.06
2023-05-05T01:36:43.193Z,83.17
2023-05-05T01:38:58.873Z,83.36
2023-05-05T01:41:14.277Z,85.47
2023-05-05T01:43:25.986Z,86.76
2023-05-05T01:45:38.762Z,87.87
2023-05-05T01:47:50.745Z,88.85
2023-05-05T01:49:58.710Z,89.61
2023-05-05T01:52:08.420Z,91.38
2023-05-05T01:54:18.861Z,92.07
2023-05-05T01:56:28.598Z,93.35
2023-05-05T01:58:37.811Z,93.71
2023-05-05T02:00:47.752Z,93.55
2023-05-05T02:03:00.116Z,91.93
2023-05-05T02:05:10.085Z,91.42
2023-05-05T02:07:20.220Z,90.42
2023-05-05T02:09:30.127Z,91.79
2023-05-05T02:11:39.521Z,92.11
2023-05-05T02:13:48.243Z,91.87
2023-05-05T02:15:58.406Z,92.50
2023-05-05T02:18:09.799Z,93.55
2023-05-05T02:20:19.312Z,94.25
2023-05-05T02:22:27.343Z,95.18
2023-05-05T02:24:35.897Z,96.19
2023-05-05T02:26:46.992Z,96.39
2023-05-05T02:29:02.205Z,95.64
2023-05-05T02:31:11.702Z,95.55
2023-05-05T02:33:25.821Z,96.80
2023-05-05T02:35:38.735Z,97.14
2023-05-05T02:37:53.930Z,98.32
2023-05-05T02:40:05.627Z,99.15
2023-05-05T02:42:22.399Z,99.53
2023-05-05T02:44:34.925Z,100.00
2023-05-05T02:46:43.778Z,100.00
2023-05-05T02:48:54.628Z,100.00
2023-05-05T02:51:02.522Z,100.00
2023-05-05T02:53:16.994Z,100.00
2023-05-05T02:55:26.112Z,100.00
2023-05-05T02:57:40.827Z,100.00
2023-05-05T02:59:56.403Z,100.00
2023-05-05T03:02:18.252Z,100.00
2023-05-05T03:04:32.268Z,100.00
2023-05-05T03:06:44.207Z,100.00
2023-05-05T03:09:00.538Z,100.00
2023-05-05T03:11:16.954Z,100.00
2023-05-05T03:13:29.283Z,100.00
2023-05-05T03:15:41.768Z,100.00
2023-05-05T03:17:51.992Z,100.00
2023-05-05T03:20:04.157Z,100.00
2023-05-05T03:22:14.826Z,100.00
2023-05-05T03:24:27.132Z,100.00
2023-05-05T03:26:42.565Z,100.00
2023-05-05T03:28:51.176Z,100.00
2023-05-05T03:31:09.209Z,100.00
2023-05-05T03:33:19.172Z,100.00
2023-05-05T03:35:30.263Z,100.00
2023-05-05T03:37:38.595Z,100.00
2023-05-05T03:39:46.788Z,100.00
2023-05-05T03:41:57.403Z,100.00
2023-05-05T03:44:08.396Z,100.00
2023-05-05T03:46:18.134Z,100.00
2023-05-05T03:48:26.249Z,100.00
2023-05-05T03:50:36.830Z,100.00
2023-05-05T03:52:45.185Z,100.00
2023-05-05T03:54:54.664Z,100.00
2023-05-05T03:57:03.132Z,100.00
2023-05-05T03:59:11.727Z,100.00
2023-05-05T04:01:20.162Z,100.00
2023-05-05T04:03:28.517Z,100.00
2023-05-05T04:05:39.493Z,100.00
2023-05-05T04:07:47.674Z,100.00
2023-05-05T04:09:56.833Z,100.00
2023-05-05T04:12:05.502Z,100.00
2023-05-05T04:14:14.690Z,100.00
2023-05-05T04:16:23.203Z,100.00
2023-05-05T04:18:31.459Z,100.00
2023-05-05T04:20:42.353Z,100.00
2023-05-05T04:22:52.756Z,100.00
2023-05-05T04:25:01.671Z,100.00
2023-05-05T04:27:10.239Z,100.00
2023-05-05T04:29:18.808Z,100.00
2023-05-05T04:31:27.151Z,100.00
2023-05-05T04:33:35.507Z,100.00
2023-05-05T04:35:47.298Z,100.00
2023-05-05T04:37:56.527Z,100.00
2023-05-05T04:40:04.489Z,100.00
2023-05-05T04:42:14.250Z,100.00
2023-05-05T04:44:22.269Z,100.00
2023-05-05T04:46:31.274Z,100.00
2023-05-05T04:48:39.902Z,100.00
2023-05-05T04:50:51.485Z,100.00
2023-05-05T04:52:59.573Z,100.00
2023-05-05T04:55:09.781Z,100.00
2023-05-05T04:57:18.116Z,100.00
2023-05-05T04:59:26.060Z,100.00
2023-05-05T05:01:35.224Z,100.00
2023-05-05T05:03:46.104Z,100.00
2023-05-05T05:05:57.131Z,100.00
2023-05-05T05:08:05.066Z,100.00
2023-05-05T05:10:13.696Z,100.00
2023-05-05T05:12:21.983Z,100.00
2023-05-05T05:14:30.350Z,100.00
2023-05-05T05:16:38.401Z,100.00
2023-05-05T05:18:46.750Z,100.00
2023-05-05T05:20:57.461Z,93.35
2023-05-05T05:23:05.814Z,83.44
2023-05-05T05:25:17.894Z,71.47
2023-05-05T05:27:27.702Z,68.22
2023-05-05T05:29:37.370Z,64.71
2023-05-05T05:31:48.335Z,62.58
2023-05-05T05:33:56.451Z,60.79
2023-05-05T05:36:09.018Z,61.37
2023-05-05T05:38:18.000Z,59.06
2023-05-05T05:40:26.699Z,60.20
2023-05-05T05:42:35.066Z,61.57
2023-05-05T05:44:44.169Z,60.63
2023-05-05T05:46:52.303Z,59.50
2023-05-05T05:49:00.448Z,57.04
2023-05-05T05:51:11.131Z,55.61
2023-05-05T05:53:19.964Z,56.41
2023-05-05T05:55:27.940Z,51.93
2023-05-05T05:57:36.180Z,47.39
2023-05-05T05:59:51.856Z,48.06
2023-05-05T06:01:59.933Z,45.69
2023-05-05T06:04:08.423Z,43.30
2023-05-05T06:06:19.067Z,42.95
2023-05-05T06:08:27.048Z,43.33
2023-05-05T06:10:37.725Z,46.45
2023-05-05T06:12:50.526Z,47.70
2023-05-05T06:14:58.749Z,52.63
2023-05-05T06:17:06.777Z,53.92
2023-05-05T06:19:14.914Z,57.71
2023-05-05T06:21:25.576Z,57.27
2023-05-05T06:23:33.734Z,61.90
2023-05-05T06:25:45.892Z,65.76
2023-05-05T06:27:54.160Z,66.60
2023-05-05T06:30:02.430Z,64.74
2023-05-05T06:32:12.580Z,68.88
2023-05-05T06:34:21.883Z,69.16
2023-05-05T06:36:32.634Z,68.62
2023-05-05T06:38:41.251Z,66.96
2023-05-05T06:40:51.779Z,69.01
2023-05-05T06:42:59.767Z,71.46
2023-05-05T06:45:15.519Z,71.41
2023-05-05T06:47:23.747Z,72.97
2023-05-05T06:49:32.059Z,73.38
2023-05-05T06:51:43.038Z,72.78
2023-05-05T06:53:51.502Z,72.05
2023-05-05T06:55:59.903Z,67.66
2023-05-05T06:58:08.006Z,68.65
2023-05-05T07:00:17.634Z,69.90
2023-05-05T07:02:26.948Z,69.54
2023-05-05T07:04:34.952Z,70.73
2023-05-05T07:06:45.612Z,69.09
2023-05-05T07:08:53.559Z,68.39
2023-05-05T07:11:01.575Z,63.40
2023-05-05T07:13:09.956Z,66.34
2023-05-05T07:15:27.642Z,66.41
2023-05-05T07:17:37.156Z,60.01
2023-05-05T07:19:45.181Z,55.89
2023-05-05T07:21:55.847Z,56.20
2023-05-05T07:24:04.144Z,55.17
2023-05-05T07:26:12.490Z,54.73
2023-05-05T07:28:23.196Z,53.35
2023-05-05T07:30:31.345Z,56.08
2023-05-05T07:32:39.520Z,54.07
2023-05-05T07:34:47.741Z,53.31
2023-05-05T07:36:59.820Z,51.91
2023-05-05T07:39:08.099Z,56.05
2023-05-05T07:41:16.137Z,56.86
2023-05-05T07:43:24.135Z,55.41
2023-05-05T07:45:32.196Z,56.24
2023-05-05T07:47:40.743Z,57.32
2023-05-05T07:49:48.758Z,57.19
2023-05-05T07:51:59.761Z,56.05
2023-05-05T07:54:09.585Z,56.29
2023-05-05T07:56:18.412Z,56.48
2023-05-05T07:58:27.424Z,56.49
2023-05-05T08:00:35.803Z,55.41
2023-05-05T08:02:44.346Z,56.85
2023-05-05T08:04:52.523Z,57.08
2023-05-05T08:07:04.697Z,57.68
2023-05-05T08:09:12.961Z,59.41
2023-05-05T08:11:20.933Z,61.06
2023-05-05T08:13:29.004Z,64.70
2023-05-05T08:15:38.617Z,67.04
2023-05-05T08:17:58.683Z,70.01
2023-05-05T08:20:07.155Z,72.03
2023-05-05T08:22:17.707Z,76.78
2023-05-05T08:24:26.247Z,75.40
2023-05-05T08:26:34.218Z,78.65
2023-05-05T08:28:42.115Z,80.34
2023-05-05T08:30:51.028Z,82.20
2023-05-05T08:32:59.297Z,84.70
2023-05-05T08:35:09.318Z,88.14
2023-05-05T08:37:20.202Z,92.36
2023-05-05T08:39:28.366Z,93.52
2023-05-05T08:41:36.651Z,97.04
2023-05-05T08:43:46.890Z,98.92
2023-05-05T08:45:56.408Z,100.00
2023-05-05T08:48:06.232Z,100.00
2023-05-05T08:50:14.921Z,100.00
2023-05-05T08:52:27.168Z,100.00
2023-05-05T08:54:39.474Z,100.00
2023-05-05T08:56:50.246Z,100.00
2023-05-05T08:59:00.177Z,98.99
2023-05-05T09:01:10.512Z,100.00
2023-05-05T09:03:19.819Z,100.00
2023-05-05T09:05:28.779Z,99.20
2023-05-05T09:07:41.514Z,100.00
2023-05-05T09:09:49.646Z,95.88
2023-05-05T09:12:02.179Z,100.00
2023-05-05T09:14:10.254Z,97.96
2023-05-05T09:16:18.719Z,93.99
2023-05-05T09:18:26.721Z,99.27
2023-05-05T09:20:37.992Z,94.88
2023-05-05T09:22:51.166Z,95.24
2023-05-05T09:24:59.748Z,88.23
2023-05-05T09:27:25.286Z,91.16
2023-05-05T09:29:33.516Z,87.26
2023-05-05T09:31:41.526Z,85.02
2023-05-05T09:33:49.733Z,88.54
2023-05-05T09:35:59.289Z,80.57
2023-05-05T09:38:17.774Z,82.79
2023-05-05T09:40:25.675Z,79.35
2023-05-05T09:42:33.837Z,77.99
2023-05-05T09:44:42.869Z,74.10
2023-05-05T09:46:55.502Z,76.03
2023-05-05T09:49:19.740Z,69.17
2023-05-05T09:51:32.723Z,73.00
2023-05-05T09:53:46.452Z,71.91
2023-05-05T09:55:56.892Z,66.29
2023-05-05T09:58:21.130Z,67.10
2023-05-05T10:00:41.789Z,61.48
2023-05-05T10:02:50.124Z,62.88
2023-05-05T10:05:09.131Z,62.20
2023-05-05T10:07:27.608Z,57.36
2023-05-05T10:09:42.109Z,51.80
2023-05-05T10:11:55.933Z,54.74
2023-05-05T10:14:10.353Z,55.72
2023-05-05T10:16:23.669Z,52.39
2023-05-05T10:18:34.029Z,49.55
2023-05-05T10:20:43.864Z,45.61
2023-05-05T10:22:55.958Z,43.33
2023-05-05T10:25:13.844Z,42.84
2023-05-05T10:27:26.322Z,43.25
2023-05-05T10:29:50.902Z,42.38
2023-05-05T10:32:27.144Z,43.19
2023-05-05T10:34:43.764Z,47.06
2023-05-05T10:36:53.790Z,50.28
2023-05-05T10:39:03.590Z,49.48
2023-05-05T10:41:16.786Z,50.24
2023-05-05T10:43:25.276Z,50.01
2023-05-05T10:45:33.849Z,51.77
2023-05-05T10:47:44.607Z,51.93
2023-05-05T10:50:00.084Z,52.19
2023-05-05T10:52:16.956Z,51.45
2023-05-05T10:54:36.363Z,50.25
2023-05-05T10:56:51.394Z,51.73
2023-05-05T10:59:00.608Z,54.74
2023-05-05T11:01:09.600Z,54.61
2023-05-05T11:03:25.408Z,54.16
2023-05-05T11:05:34.614Z,54.53
2023-05-05T11:07:43.047Z,55.75
2023-05-05T11:10:02.079Z,53.63
2023-05-05T11:12:14.027Z,54.10
2023-05-05T11:14:23.166Z,54.37
2023-05-05T11:16:48.350Z,57.58
2023-05-05T11:18:58.061Z,56.91
2023-05-05T11:21:15.836Z,54.22
2023-05-05T11:23:27.732Z,56.32
2023-05-05T11:25:51.780Z,59.72
2023-05-05T11:28:13.242Z,60.46
2023-05-05T11:30:21.403Z,60.76
2023-05-05T11:32:29.366Z,60.92
2023-05-05T11:34:37.749Z,59.09
2023-05-05T11:36:47.452Z,58.56
2023-05-05T11:39:12.063Z,56.25
2023-05-05T11:41:29.237Z,53.98
2023-05-05T11:43:40.533Z,54.18
2023-05-05T11:45:48.949Z,56.18
2023-05-05T11:48:30.270Z,51.57
2023-05-05T11:50:38.687Z,52.90
2023-05-05T11:52:46.897Z,54.30
2023-05-05T11:54:55.291Z,55.72
2023-05-05T11:57:05.319Z,51.16
2023-05-05T11:59:16.149Z,49.70
2023-05-05T12:01:24.180Z,51.91
2023-05-05T12:03:38.002Z,53.47
2023-05-05T12:05:47.698Z,52.15
2023-05-05T12:08:00.696Z,49.75
2023-05-05T12:10:10.846Z,51.38
2023-05-05T12:12:19.592Z,49.74
2023-05-05T12:14:30.629Z,51.80
2023-05-05T12:16:39.322Z,50.87
2023-05-05T12:18:47.365Z,50.98
2023-05-05T12:20:55.997Z,47.90
2023-05-05T12:23:05.375Z,49.87
2023-05-05T12:25:14.030Z,49.56
2023-05-05T12:27:23.625Z,48.21
2023-05-05T12:29:34.144Z,47.85
2023-05-05T12:31:43.823Z,48.69
2023-05-05T12:33:53.440Z,50.36
2023-05-05T12:36:01.826Z,49.73
2023-05-05T12:38:10.337Z,50.44
2023-05-05T12:40:45.430Z,48.33
2023-05-05T12:42:53.994Z,51.02
2023-05-05T12:45:04.777Z,48.25
2023-05-05T12:47:14.150Z,49.66
2023-05-05T12:49:22.340Z,49.89
2023-05-05T12:51:31.532Z,50.95
2023-05-05T12:53:39.451Z,50.00
2023-05-05T12:55:47.963Z,51.40
2023-05-05T12:58:04.902Z,51.27
2023-05-05T13:00:21.195Z,48.55
2023-05-05T13:02:37.186Z,48.20
2023-05-05T13:04:53.014Z,47.52
2023-05-05T13:07:15.091Z,48.91
2023-05-05T13:09:26.883Z,49.98
2023-05-05T13:11:38.476Z,50.53
2023-05-05T13:13:46.530Z,53.45
2023-05-05T13:15:57.130Z,53.56
2023-05-05T13:18:08.145Z,52.82
2023-05-05T13:20:16.070Z,50.72
2023-05-05T13:22:24.408Z,52.26
2023-05-05T13:24:50.888Z,50.75
2023-05-05T13:27:00.117Z,49.67
2023-05-05T13:29:08.105Z,51.67
2023-05-05T13:31:18.610Z,54.29
2023-05-05T13:33:26.609Z,55.27
2023-05-05T13:36:02.491Z,54.86
2023-05-05T13:38:10.972Z,55.96
2023-05-05T13:40:19.120Z,55.88
2023-05-05T13:42:27.130Z,54.76
2023-05-05T13:44:35.652Z,54.32
2023-05-05T13:46:46.631Z,53.64
2023-05-05T13:48:56.770Z,56.33
2023-05-05T13:51:04.768Z,53.10
2023-05-05T13:53:13.021Z,51.77
2023-05-05T13:55:21.360Z,52.99
2023-05-05T13:57:29.355Z,52.54
2023-05-05T13:59:37.788Z,52.97
2023-05-05T14:01:48.409Z,53.63
2023-05-05T14:03:57.396Z,54.81
2023-05-05T14:06:06.130Z,55.07
2023-05-05T14:08:14.417Z,55.24
2023-05-05T14:10:22.688Z,56.54
2023-05-05T14:12:31.010Z,55.46
2023-05-05T14:14:38.969Z,54.83
2023-05-05T14:16:50.345Z,55.53
2023-05-05T14:18:58.782Z,54.72
2023-05-05T14:21:06.763Z,52.05
2023-05-05T14:23:14.695Z,53.92
2023-05-05T14:25:22.506Z,52.93
2023-05-05T14:27:30.511Z,52.60
2023-05-05T14:29:38.685Z,50.29
2023-05-05T14:31:49.522Z,50.69
2023-05-05T14:33:57.797Z,51.89
2023-05-05T14:36:06.093Z,55.05
2023-05-05T14:38:14.112Z,55.74
2023-05-05T14:40:24.110Z,56.21
2023-05-05T14:42:32.212Z,57.54
2023-05-05T14:44:40.519Z,58.57
2023-05-05T14:46:51.443Z,57.82
2023-05-05T14:48:59.523Z,59.72
2023-05-05T14:51:07.855Z,59.63
2023-05-05T14:53:15.933Z,59.31
2023-05-05T14:55:25.121Z,59.49
2023-05-05T14:57:33.554Z,60.03
2023-05-05T14:59:41.674Z,60.79
2023-05-05T15:01:52.150Z,60.80
2023-05-05T15:04:00.253Z,61.71
2023-05-05T15:06:08.572Z,61.81
2023-05-05T15:08:19.124Z,63.68
2023-05-05T15:10:27.913Z,63.64
2023-05-05T15:12:35.872Z,62.70
2023-05-05T15:14:43.867Z,63.99
2023-05-05T15:16:54.478Z,63.21
2023-05-05T15:19:02.425Z,63.88
2023-05-05T15:21:10.451Z,64.63
2023-05-05T15:23:18.373Z,66.08
2023-05-05T15:25:27.288Z,65.99
2023-05-05T15:27:36.447Z,67.30
2023-05-05T15:29:44.735Z,66.32
2023-05-05T15:31:55.612Z,67.93
2023-05-05T15:34:03.963Z,67.06
2023-05-05T15:36:13.232Z,68.57
2023-05-05T15:38:21.207Z,69.19
2023-05-05T15:40:29.370Z,69.33
2023-05-05T15:42:37.779Z,66.62
2023-05-05T15:44:45.856Z,67.65
2023-05-05T15:46:56.415Z,68.86
2023-05-05T15:49:04.419Z,67.81
2023-05-05T15:51:14.545Z,68.24
2023-05-05T15:53:22.874Z,68.86
2023-05-05T15:55:32.614Z,69.96
2023-05-05T15:57:41.219Z,68.83
2023-05-05T15:59:49.315Z,69.75
2023-05-05T16:02:00.259Z,75.28
2023-05-05T16:04:08.234Z,79.61
2023-05-05T16:06:16.308Z,80.32
2023-05-05T16:08:24.382Z,86.21
2023-05-05T16:10:32.373Z,91.89
2023-05-05T16:12:40.363Z,93.96
2023-05-05T16:14:48.370Z,99.58
2023-05-05T16:16:56.419Z,100.00
2023-05-05T16:19:07.160Z,100.00
2023-05-05T16:21:15.146Z,100.00
2023-05-05T16:23:23.276Z,100.00
2023-05-05T16:25:31.198Z,100.00
2023-05-05T16:27:39.146Z,100.00
2023-05-05T16:29:47.166Z,100.00
2023-05-05T16:31:55.287Z,100.00
2023-05-05T16:34:03.518Z,100.00
2023-05-05T16:36:15.054Z,100.00
2023-05-05T16:38:23.280Z,100.00
2023-05-05T16:40:32.380Z,100.00
2023-05-05T16:42:42.369Z,100.00
2023-05-05T16:44:52.228Z,100.00
2023-05-05T16:47:00.275Z,100.00
2023-05-05T16:49:09.349Z,100.00
2023-05-05T16:51:20.237Z,100.00
2023-05-05T16:53:28.753Z,100.00
2023-05-05T16:55:36.728Z,100.00
2023-05-05T16:57:44.816Z,100.00
2023-05-05T16:59:53.026Z,100.00
2023-05-05T17:02:01.437Z,100.00
2023-05-05T17:04:10.132Z,100.00
2023-05-05T17:06:20.760Z,100.00
2023-05-05T17:08:28.962Z,100.00
2023-05-05T17:10:36.895Z,100.00
2023-05-05T17:12:45.005Z,100.00
2023-05-05T17:14:58.419Z,100.00
2023-05-05T17:17:09.689Z,100.00
2023-05-05T17:19:17.772Z,100.00
2023-05-05T17:21:29.372Z,100.00
2023-05-05T17:23:37.691Z,100.00
2023-05-05T17:25:45.643Z,100.00
2023-05-05T17:27:53.888Z,100.00
2023-05-05T17:30:02.018Z,100.00
2023-05-05T17:32:10.188Z,100.00
2023-05-05T17:34:18.314Z,100.00
2023-05-05T17:36:29.605Z,100.00
2023-05-05T17:38:37.574Z,100.00
2023-05-05T17:40:45.466Z,100.00
2023-05-05T17:42:53.511Z,100.00
2023-05-05T17:45:01.605Z,100.00
2023-05-05T17:47:10.858Z,100.00
2023-05-05T17:49:19.336Z,100.00
2023-05-05T17:51:31.582Z,100.00
2023-05-05T17:53:39.718Z,100.00
2023-05-05T17:55:47.958Z,100.00
2023-05-05T17:57:56.073Z,100.00
2023-05-05T18:00:07.031Z,100.00
2023-05-05T18:02:21.417Z,100.00
2023-05-05T18:04:29.340Z,100.00
2023-05-05T18:06:39.838Z,100.00
2023-05-05T18:08:48.097Z,100.00
2023-05-05T18:10:57.288Z,100.00
2023-05-05T18:13:05.525Z,100.00
2023-05-05T18:15:14.763Z,100.00
2023-05-05T18:17:22.732Z,100.00
2023-05-05T18:19:30.618Z,100.00
2023-05-05T18:21:41.678Z,100.00
2023-05-05T18:23:50.050Z,100.00
2023-05-05T18:25:58.036Z,100.00
2023-05-05T18:28:06.079Z,100.00
2023-05-05T18:30:14.902Z,100.00
2023-05-05T18:32:23.996Z,100.00
2023-05-05T18:34:33.029Z,100.00
2023-05-05T18:36:43.969Z,100.00
2023-05-05T18:38:54.583Z,100.00
2023-05-05T18:41:02.691Z,100.00
2023-05-05T18:43:11.340Z,100.00
2023-05-05T18:45:19.494Z,100.00
2023-05-05T18:47:29.965Z,100.00
2023-05-05T18:49:41.715Z,100.00
2023-05-05T18:51:55.519Z,100.00
2023-05-05T18:54:03.892Z,100.00
2023-05-05T18:56:11.773Z,100.00
2023-05-05T18:58:20.116Z,100.00
2023-05-05T19:00:29.865Z,100.00
2023-05-05T19:02:38.207Z,100.00
2023-05-05T19:04:46.441Z,100.00
2023-05-05T19:06:57.475Z,100.00
2023-05-05T19:09:05.408Z,100.00
2023-05-05T19:11:14.966Z,100.00
2023-05-05T19:13:22.953Z,100.00
2023-05-05T19:15:31.072Z,100.00
2023-05-05T19:17:38.990Z,100.00
2023-05-05T19:19:47.000Z,100.00
2023-05-05T19:22:00.324Z,100.00
2023-05-05T19:24:10.946Z,100.00
2023-05-05T19:26:18.834Z,100.00
2023-05-05T19:28:26.846Z,100.00
2023-05-05T19:30:34.833Z,100.00
2023-05-05T19:32:42.827Z,100.00
2023-05-05T19:34:54.412Z,100.00
2023-05-05T19:37:05.152Z,100.00
2023-05-05T19:39:15.231Z,100.00
2023-05-05T19:41:23.662Z,100.00
2023-05-05T19:43:31.746Z,100.00
2023-05-05T19:45:40.041Z,100.00
2023-05-05T19:47:48.443Z,100.00
2023-05-05T19:49:56.310Z,100.00
2023-05-05T19:52:13.529Z,100.00
2023-05-05T19:54:21.502Z,100.00
2023-05-05T19:56:29.365Z,100.00
2023-05-05T19:58:56.480Z,100.00
2023-05-05T20:01:04.522Z,100.00
2023-05-05T20:03:12.599Z,100.00
2023-05-05T20:05:22.247Z,100.00
2023-05-05T20:07:34.523Z,100.00
2023-05-05T20:09:46.571Z,100.00
2023-05-05T20:11:56.012Z,100.00
2023-05-05T20:14:06.113Z,100.00
2023-05-05T20:16:15.042Z,100.00
2023-05-05T20:18:23.130Z,100.00
2023-05-05T20:20:31.298Z,100.00
2023-05-05T20:22:42.029Z,100.00
2023-05-05T20:24:50.161Z,100.00
2023-05-05T20:26:58.225Z,100.00
2023-05-05T20:29:06.608Z,100.00
2023-05-05T20:31:15.038Z,100.00
2023-05-05T20:33:24.515Z,100.00
2023-05-05T20:35:32.417Z,100.00
2023-05-05T20:37:49.544Z,100.00
2023-05-05T20:40:02.132Z,100.00
2023-05-05T20:42:10.246Z,100.00
2023-05-05T20:44:18.408Z,100.00
2023-05-05T20:46:26.423Z,100.00
2023-05-05T20:48:34.405Z,100.00
2023-05-05T20:50:43.854Z,100.00
2023-05-05T20:52:54.551Z,100.00
2023-05-05T20:55:02.548Z,100.00
2023-05-05T20:57:10.851Z,100.00
2023-05-05T20:59:18.925Z,100.00
2023-05-05T21:01:27.203Z,100.00
2023-05-05T21:03:35.366Z,100.00
2023-05-05T21:05:46.379Z,100.00
2023-05-05T21:08:00.784Z,100.00
2023-05-05T21:10:13.893Z,100.00
2023-05-05T21:12:25.496Z,100.00
2023-05-05T21:14:38.327Z,100.00
2023-05-05T21:16:51.254Z,100.00
2023-05-05T21:18:59.709Z,100.00
2023-05-05T21:21:20.957Z,100.00
2023-05-05T21:23:34.425Z,100.00
2023-05-05T21:25:49.858Z,100.00
2023-05-05T21:27:59.725Z,100.00
2023-05-05T21:30:11.041Z,100.00
2023-05-05T21:32:19.443Z,100.00
2023-05-05T21:34:27.435Z,100.00
2023-05-05T21:36:37.030Z,100.00
2023-05-05T21:38:47.601Z,100.00
2023-05-05T21:40:59.182Z,100.00
2023-05-05T21:43:07.146Z,100.00
2023-05-05T21:45:15.202Z,100.00
2023-05-05T21:47:23.716Z,100.00
2023-05-05T21:49:32.458Z,100.00
2023-05-05T21:51:40.510Z,100.00
2023-05-05T21:53:51.147Z,100.00
2023-05-05T21:55:59.323Z,100.00
2023-05-05T21:58:07.490Z,100.00
2023-05-05T22:00:18.025Z,100.00
2023-05-05T22:02:26.026Z,100.00
2023-05-05T22:04:34.203Z,100.00
2023-05-05T22:06:42.282Z,100.00
2023-05-05T22:08:53.522Z,100.00
2023-05-05T22:11:01.972Z,100.00
2023-05-05T22:13:10.898Z,100.00
2023-05-05T22:15:20.240Z,100.00
2023-05-05T22:17:28.229Z,100.00
2023-05-05T22:19:36.206Z,100.00
2023-05-05T22:21:44.112Z,100.00
2023-05-05T22:23:54.959Z,100.00
2023-05-05T22:26:03.348Z,100.00
2023-05-05T22:28:11.381Z,100.00
2023-05-05T22:30:19.493Z,100.00
2023-05-05T22:32:27.889Z,100.00
2023-05-05T22:34:38.181Z,100.00
2023-05-05T22:36:46.293Z,100.00
2023-05-05T22:38:56.803Z,100.00
2023-05-05T22:41:04.729Z,100.00
2023-05-05T22:43:12.774Z,100.00
2023-05-05T22:45:21.147Z,100.00
2023-05-05T22:47:29.436Z,100.00
2023-05-05T22:49:37.830Z,100.00
2023-05-05T22:51:46.451Z,100.00
2023-05-05T22:53:57.104Z,100.00
2023-05-05T22:56:05.149Z,100.00
2023-05-05T22:58:13.265Z,100.00
2023-05-05T23:00:21.422Z,100.00
2023-05-05T23:02:30.072Z,100.00
2023-05-05T23:04:38.137Z,100.00
2023-05-05T23:06:46.239Z,100.00
2023-05-05T23:08:56.823Z,100.00
2023-05-05T23:11:04.727Z,100.00
2023-05-05T23:13:12.737Z,100.00
2023-05-05T23:15:21.800Z,100.00
2023-05-05T23:17:29.860Z,100.00
2023-05-05T23:19:38.046Z,100.00
2023-05-05T23:21:53.198Z,100.00
2023-05-05T23:24:05.161Z,100.00
2023-05-05T23:26:13.320Z,100.00
2023-05-05T23:28:21.714Z,100.00
2023-05-05T23:30:29.817Z,100.00
2023-05-05T23:32:37.967Z,100.00
2023-05-05T23:34:45.936Z,100.00
2023-05-05T23:36:54.000Z,100.00
2023-05-05T23:39:04.730Z,100.00
2023-05-05T23:41:12.706Z,100.00
2023-05-05T23:43:20.633Z,100.00
2023-05-05T23:45:28.714Z,100.00
2023-05-05T23:47:36.693Z,100.00
2023-05-05T23:49:44.602Z,100.00
2023-05-05T23:51:52.659Z,100.00
2023-05-05T23:54:00.683Z,100.00
2023-05-05T23:56:12.325Z,100.00
2023-05-05T23:58:20.324Z,100.00
